sensor_id;sensor_type;location;lat;lon;timestamp;P1;durP1;ratioP1;P2;durP2;ratioP2
8285;SDS011;4181;43.416;24.598;2024-02-21T00:01:39;6.40;;;4.80;;
8285;SDS011;4181;43.416;24.598;2024-02-21T00:04:04;6.60;;;4.43;;
8285;SDS011;4181;43.416;24.598;2024-02-21T00:06:30;7.17;;;5.37;;
8285;SDS011;4181;43.416;24.598;2024-02-21T00:08:56;8.30;;;5.17;;
8285;SDS011;4181;43.416;24.598;2024-02-21T00:11:22;7.53;;;4.63;;
8285;SDS011;4181;43.416;24.598;2024-02-21T00:13:47;7.80;;;4.27;;
8285;SDS011;4181;43.416;24.598;2024-02-21T00:16:13;4.57;;;3.13;;
8285;SDS011;4181;43.416;24.598;2024-02-21T00:18:40;6.83;;;4.40;;
8285;SDS011;4181;43.416;24.598;2024-02-21T00:21:06;5.17;;;4.07;;
8285;SDS011;4181;43.416;24.598;2024-02-21T00:23:34;6.43;;;4.37;;
8285;SDS011;4181;43.416;24.598;2024-02-21T00:26:00;6.13;;;4.93;;
8285;SDS011;4181;43.416;24.598;2024-02-21T00:28:25;10.43;;;6.70;;
8285;SDS011;4181;43.416;24.598;2024-02-21T00:30:50;9.20;;;6.50;;
8285;SDS011;4181;43.416;24.598;2024-02-21T00:33:18;9.70;;;5.80;;
8285;SDS011;4181;43.416;24.598;2024-02-21T00:35:43;10.03;;;5.93;;
8285;SDS011;4181;43.416;24.598;2024-02-21T00:38:09;10.07;;;6.17;;
8285;SDS011;4181;43.416;24.598;2024-02-21T00:40:34;5.53;;;4.87;;
8285;SDS011;4181;43.416;24.598;2024-02-21T00:43:00;8.27;;;6.40;;
8285;SDS011;4181;43.416;24.598;2024-02-21T00:45:25;13.83;;;5.97;;
8285;SDS011;4181;43.416;24.598;2024-02-21T00:47:54;6.40;;;5.27;;
8285;SDS011;4181;43.416;24.598;2024-02-21T00:50:19;7.27;;;4.87;;
8285;SDS011;4181;43.416;24.598;2024-02-21T00:52:45;7.77;;;4.40;;
8285;SDS011;4181;43.416;24.598;2024-02-21T00:55:10;7.60;;;4.07;;
8285;SDS011;4181;43.416;24.598;2024-02-21T00:57:36;17.27;;;5.20;;
8285;SDS011;4181;43.416;24.598;2024-02-21T01:00:02;6.43;;;4.37;;
8285;SDS011;4181;43.416;24.598;2024-02-21T01:02:28;9.03;;;5.53;;
8285;SDS011;4181;43.416;24.598;2024-02-21T01:04:56;7.30;;;4.83;;
8285;SDS011;4181;43.416;24.598;2024-02-21T01:07:22;7.50;;;4.43;;
8285;SDS011;4181;43.416;24.598;2024-02-21T01:09:47;6.17;;;4.30;;
8285;SDS011;4181;43.416;24.598;2024-02-21T01:12:12;4.57;;;3.60;;
8285;SDS011;4181;43.416;24.598;2024-02-21T01:14:38;7.50;;;4.00;;
8285;SDS011;4181;43.416;24.598;2024-02-21T01:17:03;6.53;;;4.77;;
8285;SDS011;4181;43.416;24.598;2024-02-21T01:19:31;7.33;;;4.57;;
8285;SDS011;4181;43.416;24.598;2024-02-21T01:21:56;7.97;;;4.03;;
8285;SDS011;4181;43.416;24.598;2024-02-21T01:24:22;8.03;;;3.97;;
8285;SDS011;4181;43.416;24.598;2024-02-21T01:26:47;7.20;;;3.77;;
8285;SDS011;4181;43.416;24.598;2024-02-21T01:29:12;6.70;;;3.80;;
8285;SDS011;4181;43.416;24.598;2024-02-21T01:31:38;8.73;;;4.37;;
8285;SDS011;4181;43.416;24.598;2024-02-21T01:34:03;4.23;;;3.10;;
8285;SDS011;4181;43.416;24.598;2024-02-21T01:36:29;7.87;;;3.93;;
8285;SDS011;4181;43.416;24.598;2024-02-21T01:38:54;8.27;;;4.03;;
8285;SDS011;4181;43.416;24.598;2024-02-21T01:41:19;7.30;;;3.87;;
8285;SDS011;4181;43.416;24.598;2024-02-21T01:43:45;5.83;;;3.57;;
8285;SDS011;4181;43.416;24.598;2024-02-21T01:46:10;5.77;;;4.13;;
8285;SDS011;4181;43.416;24.598;2024-02-21T01:48:36;7.17;;;3.83;;
8285;SDS011;4181;43.416;24.598;2024-02-21T01:51:02;5.83;;;3.33;;
8285;SDS011;4181;43.416;24.598;2024-02-21T01:53:30;6.50;;;3.30;;
8285;SDS011;4181;43.416;24.598;2024-02-21T01:56:00;5.90;;;3.83;;
8285;SDS011;4181;43.416;24.598;2024-02-21T01:58:26;5.83;;;3.47;;
8285;SDS011;4181;43.416;24.598;2024-02-21T02:00:54;6.60;;;4.00;;
8285;SDS011;4181;43.416;24.598;2024-02-21T02:03:22;8.43;;;4.37;;
8285;SDS011;4181;43.416;24.598;2024-02-21T02:05:48;4.27;;;3.07;;
8285;SDS011;4181;43.416;24.598;2024-02-21T02:08:15;4.63;;;3.27;;
8285;SDS011;4181;43.416;24.598;2024-02-21T02:10:41;4.50;;;3.10;;
8285;SDS011;4181;43.416;24.598;2024-02-21T02:13:07;4.13;;;3.63;;
8285;SDS011;4181;43.416;24.598;2024-02-21T02:15:42;8.87;;;3.43;;
8285;SDS011;4181;43.416;24.598;2024-02-21T02:18:09;5.40;;;3.63;;
8285;SDS011;4181;43.416;24.598;2024-02-21T02:20:36;5.10;;;4.27;;
8285;SDS011;4181;43.416;24.598;2024-02-21T02:23:10;7.23;;;4.87;;
8285;SDS011;4181;43.416;24.598;2024-02-21T02:25:53;8.63;;;4.07;;
8285;SDS011;4181;43.416;24.598;2024-02-21T02:28:19;7.33;;;3.80;;
8285;SDS011;4181;43.416;24.598;2024-02-21T02:30:45;7.30;;;3.50;;
8285;SDS011;4181;43.416;24.598;2024-02-21T02:33:10;6.37;;;4.43;;
8285;SDS011;4181;43.416;24.598;2024-02-21T02:35:36;6.43;;;4.60;;
8285;SDS011;4181;43.416;24.598;2024-02-21T02:38:05;7.40;;;4.33;;
8285;SDS011;4181;43.416;24.598;2024-02-21T02:40:34;6.70;;;3.87;;
8285;SDS011;4181;43.416;24.598;2024-02-21T02:43:00;5.47;;;3.97;;
8285;SDS011;4181;43.416;24.598;2024-02-21T02:45:26;7.63;;;6.00;;
8285;SDS011;4181;43.416;24.598;2024-02-21T02:47:52;7.17;;;4.77;;
8285;SDS011;4181;43.416;24.598;2024-02-21T02:50:22;9.20;;;5.77;;
8285;SDS011;4181;43.416;24.598;2024-02-21T02:52:48;8.03;;;5.50;;
8285;SDS011;4181;43.416;24.598;2024-02-21T02:55:14;8.30;;;5.77;;
8285;SDS011;4181;43.416;24.598;2024-02-21T02:57:39;8.00;;;4.73;;
8285;SDS011;4181;43.416;24.598;2024-02-21T03:00:07;7.67;;;4.03;;
8285;SDS011;4181;43.416;24.598;2024-02-21T03:02:33;5.13;;;3.73;;
8285;SDS011;4181;43.416;24.598;2024-02-21T03:04:59;5.57;;;3.83;;
8285;SDS011;4181;43.416;24.598;2024-02-21T03:07:25;7.03;;;4.03;;
8285;SDS011;4181;43.416;24.598;2024-02-21T03:09:50;7.23;;;5.13;;
8285;SDS011;4181;43.416;24.598;2024-02-21T03:12:16;6.77;;;5.53;;
8285;SDS011;4181;43.416;24.598;2024-02-21T03:14:49;7.33;;;4.00;;
8285;SDS011;4181;43.416;24.598;2024-02-21T03:17:15;4.43;;;3.57;;
8285;SDS011;4181;43.416;24.598;2024-02-21T03:19:41;5.83;;;3.63;;
8285;SDS011;4181;43.416;24.598;2024-02-21T03:22:06;4.23;;;3.30;;
8285;SDS011;4181;43.416;24.598;2024-02-21T03:24:32;6.33;;;3.20;;
8285;SDS011;4181;43.416;24.598;2024-02-21T03:26:58;5.17;;;3.53;;
8285;SDS011;4181;43.416;24.598;2024-02-21T03:29:24;6.90;;;3.80;;
8285;SDS011;4181;43.416;24.598;2024-02-21T03:31:50;6.23;;;4.70;;
8285;SDS011;4181;43.416;24.598;2024-02-21T03:34:15;7.27;;;3.73;;
8285;SDS011;4181;43.416;24.598;2024-02-21T03:36:41;4.57;;;3.17;;
8285;SDS011;4181;43.416;24.598;2024-02-21T03:39:06;6.47;;;3.67;;
8285;SDS011;4181;43.416;24.598;2024-02-21T03:41:34;5.93;;;3.27;;
8285;SDS011;4181;43.416;24.598;2024-02-21T03:43:59;2.97;;;2.33;;
8285;SDS011;4181;43.416;24.598;2024-02-21T03:46:25;4.30;;;3.13;;
8285;SDS011;4181;43.416;24.598;2024-02-21T03:48:50;5.53;;;3.03;;
8285;SDS011;4181;43.416;24.598;2024-02-21T03:51:16;4.67;;;3.47;;
8285;SDS011;4181;43.416;24.598;2024-02-21T03:53:42;4.57;;;3.40;;
8285;SDS011;4181;43.416;24.598;2024-02-21T03:56:07;5.23;;;3.60;;
8285;SDS011;4181;43.416;24.598;2024-02-21T03:58:33;2.93;;;2.63;;
8285;SDS011;4181;43.416;24.598;2024-02-21T04:01:02;8.50;;;3.70;;
8285;SDS011;4181;43.416;24.598;2024-02-21T04:03:28;3.83;;;3.30;;
8285;SDS011;4181;43.416;24.598;2024-02-21T04:05:54;4.17;;;3.07;;
8285;SDS011;4181;43.416;24.598;2024-02-21T04:08:19;4.93;;;3.00;;
8285;SDS011;4181;43.416;24.598;2024-02-21T04:10:45;8.07;;;4.93;;
8285;SDS011;4181;43.416;24.598;2024-02-21T04:13:10;8.97;;;4.50;;
8285;SDS011;4181;43.416;24.598;2024-02-21T04:15:36;7.53;;;3.93;;
8285;SDS011;4181;43.416;24.598;2024-02-21T04:18:02;4.67;;;3.80;;
8285;SDS011;4181;43.416;24.598;2024-02-21T04:20:28;5.47;;;3.80;;
8285;SDS011;4181;43.416;24.598;2024-02-21T04:22:54;5.27;;;3.50;;
8285;SDS011;4181;43.416;24.598;2024-02-21T04:25:19;3.90;;;3.43;;
8285;SDS011;4181;43.416;24.598;2024-02-21T04:27:47;3.23;;;2.93;;
8285;SDS011;4181;43.416;24.598;2024-02-21T04:30:12;5.20;;;2.53;;
8285;SDS011;4181;43.416;24.598;2024-02-21T04:32:38;3.03;;;2.80;;
8285;SDS011;4181;43.416;24.598;2024-02-21T04:35:05;2.50;;;2.30;;
8285;SDS011;4181;43.416;24.598;2024-02-21T04:37:33;3.83;;;3.27;;
8285;SDS011;4181;43.416;24.598;2024-02-21T04:39:59;2.97;;;2.57;;
8285;SDS011;4181;43.416;24.598;2024-02-21T04:42:24;4.67;;;2.87;;
8285;SDS011;4181;43.416;24.598;2024-02-21T04:44:50;4.37;;;2.80;;
8285;SDS011;4181;43.416;24.598;2024-02-21T04:47:15;3.23;;;2.83;;
8285;SDS011;4181;43.416;24.598;2024-02-21T04:49:41;6.03;;;4.00;;
8285;SDS011;4181;43.416;24.598;2024-02-21T04:52:06;5.23;;;3.63;;
8285;SDS011;4181;43.416;24.598;2024-02-21T04:54:32;4.67;;;4.03;;
8285;SDS011;4181;43.416;24.598;2024-02-21T04:56:57;3.63;;;2.97;;
8285;SDS011;4181;43.416;24.598;2024-02-21T04:59:23;4.87;;;2.87;;
8285;SDS011;4181;43.416;24.598;2024-02-21T05:01:48;3.50;;;2.67;;
8285;SDS011;4181;43.416;24.598;2024-02-21T05:04:16;4.27;;;2.97;;
8285;SDS011;4181;43.416;24.598;2024-02-21T05:06:42;3.67;;;3.07;;
8285;SDS011;4181;43.416;24.598;2024-02-21T05:09:08;4.27;;;3.00;;
8285;SDS011;4181;43.416;24.598;2024-02-21T05:11:34;5.57;;;4.03;;
8285;SDS011;4181;43.416;24.598;2024-02-21T05:14:00;7.93;;;5.63;;
8285;SDS011;4181;43.416;24.598;2024-02-21T05:16:29;7.67;;;5.27;;
8285;SDS011;4181;43.416;24.598;2024-02-21T05:18:55;7.67;;;4.97;;
8285;SDS011;4181;43.416;24.598;2024-02-21T05:21:21;5.77;;;4.50;;
8285;SDS011;4181;43.416;24.598;2024-02-21T05:23:48;3.60;;;2.77;;
8285;SDS011;4181;43.416;24.598;2024-02-21T05:26:24;5.30;;;3.83;;
8285;SDS011;4181;43.416;24.598;2024-02-21T05:28:50;3.63;;;2.93;;
8285;SDS011;4181;43.416;24.598;2024-02-21T05:31:17;4.80;;;3.27;;
8285;SDS011;4181;43.416;24.598;2024-02-21T05:33:43;3.20;;;2.90;;
8285;SDS011;4181;43.416;24.598;2024-02-21T05:36:09;6.07;;;4.00;;
8285;SDS011;4181;43.416;24.598;2024-02-21T05:38:34;6.37;;;3.23;;
8285;SDS011;4181;43.416;24.598;2024-02-21T05:41:00;3.83;;;2.90;;
8285;SDS011;4181;43.416;24.598;2024-02-21T05:43:26;9.37;;;4.57;;
8285;SDS011;4181;43.416;24.598;2024-02-21T05:45:51;4.37;;;3.07;;
8285;SDS011;4181;43.416;24.598;2024-02-21T05:48:18;12.43;;;3.73;;
8285;SDS011;4181;43.416;24.598;2024-02-21T05:50:43;5.03;;;3.63;;
8285;SDS011;4181;43.416;24.598;2024-02-21T05:53:09;5.30;;;3.53;;
8285;SDS011;4181;43.416;24.598;2024-02-21T05:55:36;5.10;;;3.20;;
8285;SDS011;4181;43.416;24.598;2024-02-21T05:58:01;4.90;;;3.40;;
8285;SDS011;4181;43.416;24.598;2024-02-21T06:00:30;5.30;;;3.70;;
8285;SDS011;4181;43.416;24.598;2024-02-21T06:02:56;13.30;;;5.83;;
8285;SDS011;4181;43.416;24.598;2024-02-21T06:05:22;12.10;;;7.50;;
8285;SDS011;4181;43.416;24.598;2024-02-21T06:07:47;9.70;;;4.40;;
8285;SDS011;4181;43.416;24.598;2024-02-21T06:10:12;6.70;;;3.40;;
8285;SDS011;4181;43.416;24.598;2024-02-21T06:12:38;7.10;;;3.77;;
8285;SDS011;4181;43.416;24.598;2024-02-21T06:15:03;3.70;;;3.23;;
8285;SDS011;4181;43.416;24.598;2024-02-21T06:17:29;6.57;;;3.77;;
8285;SDS011;4181;43.416;24.598;2024-02-21T06:19:55;2.80;;;2.47;;
8285;SDS011;4181;43.416;24.598;2024-02-21T06:22:20;4.77;;;3.67;;
8285;SDS011;4181;43.416;24.598;2024-02-21T06:24:46;4.20;;;3.73;;
8285;SDS011;4181;43.416;24.598;2024-02-21T06:27:11;5.47;;;3.80;;
8285;SDS011;4181;43.416;24.598;2024-02-21T06:29:37;3.97;;;3.07;;
8285;SDS011;4181;43.416;24.598;2024-02-21T06:32:02;5.63;;;3.63;;
8285;SDS011;4181;43.416;24.598;2024-02-21T06:34:28;5.13;;;3.50;;
8285;SDS011;4181;43.416;24.598;2024-02-21T06:36:54;5.80;;;3.73;;
8285;SDS011;4181;43.416;24.598;2024-02-21T06:39:19;6.37;;;4.90;;
8285;SDS011;4181;43.416;24.598;2024-02-21T06:41:45;5.17;;;3.97;;
8285;SDS011;4181;43.416;24.598;2024-02-21T06:44:10;8.03;;;4.57;;
8285;SDS011;4181;43.416;24.598;2024-02-21T06:46:36;10.80;;;5.37;;
8285;SDS011;4181;43.416;24.598;2024-02-21T06:49:01;9.70;;;4.87;;
8285;SDS011;4181;43.416;24.598;2024-02-21T06:51:29;8.07;;;5.80;;
8285;SDS011;4181;43.416;24.598;2024-02-21T06:53:54;18.37;;;7.23;;
8285;SDS011;4181;43.416;24.598;2024-02-21T06:56:20;8.87;;;5.50;;
8285;SDS011;4181;43.416;24.598;2024-02-21T06:58:51;5.10;;;3.57;;
8285;SDS011;4181;43.416;24.598;2024-02-21T07:01:17;6.70;;;3.57;;
8285;SDS011;4181;43.416;24.598;2024-02-21T07:03:43;5.30;;;4.20;;
8285;SDS011;4181;43.416;24.598;2024-02-21T07:06:08;5.20;;;3.87;;
8285;SDS011;4181;43.416;24.598;2024-02-21T07:08:33;6.83;;;4.33;;
8285;SDS011;4181;43.416;24.598;2024-02-21T07:10:59;6.53;;;4.33;;
8285;SDS011;4181;43.416;24.598;2024-02-21T07:13:24;7.70;;;4.90;;
8285;SDS011;4181;43.416;24.598;2024-02-21T07:15:50;7.77;;;4.43;;
8285;SDS011;4181;43.416;24.598;2024-02-21T07:18:15;5.83;;;4.37;;
8285;SDS011;4181;43.416;24.598;2024-02-21T07:20:41;5.90;;;3.83;;
8285;SDS011;4181;43.416;24.598;2024-02-21T07:23:07;6.13;;;4.27;;
8285;SDS011;4181;43.416;24.598;2024-02-21T07:25:33;8.13;;;4.50;;
8285;SDS011;4181;43.416;24.598;2024-02-21T07:27:58;5.90;;;4.77;;
8285;SDS011;4181;43.416;24.598;2024-02-21T07:30:24;6.90;;;4.83;;
8285;SDS011;4181;43.416;24.598;2024-02-21T07:32:50;8.73;;;4.87;;
8285;SDS011;4181;43.416;24.598;2024-02-21T07:35:16;9.83;;;6.10;;
8285;SDS011;4181;43.416;24.598;2024-02-21T07:37:45;8.57;;;5.90;;
8285;SDS011;4181;43.416;24.598;2024-02-21T07:40:15;9.80;;;6.47;;
8285;SDS011;4181;43.416;24.598;2024-02-21T07:42:41;12.23;;;6.33;;
8285;SDS011;4181;43.416;24.598;2024-02-21T07:45:09;8.90;;;6.33;;
8285;SDS011;4181;43.416;24.598;2024-02-21T07:47:37;12.53;;;6.50;;
8285;SDS011;4181;43.416;24.598;2024-02-21T07:50:03;11.63;;;7.83;;
8285;SDS011;4181;43.416;24.598;2024-02-21T07:52:29;12.97;;;7.57;;
8285;SDS011;4181;43.416;24.598;2024-02-21T07:54:55;10.37;;;5.73;;
8285;SDS011;4181;43.416;24.598;2024-02-21T07:57:20;12.37;;;7.00;;
8285;SDS011;4181;43.416;24.598;2024-02-21T07:59:46;16.87;;;7.83;;
8285;SDS011;4181;43.416;24.598;2024-02-21T08:02:15;9.00;;;6.23;;
8285;SDS011;4181;43.416;24.598;2024-02-21T08:04:41;19.03;;;10.20;;
8285;SDS011;4181;43.416;24.598;2024-02-21T08:07:06;15.67;;;9.33;;
8285;SDS011;4181;43.416;24.598;2024-02-21T08:09:32;12.53;;;7.73;;
8285;SDS011;4181;43.416;24.598;2024-02-21T08:11:57;10.40;;;5.67;;
8285;SDS011;4181;43.416;24.598;2024-02-21T08:14:23;7.60;;;5.50;;
8285;SDS011;4181;43.416;24.598;2024-02-21T08:16:50;9.60;;;5.80;;
8285;SDS011;4181;43.416;24.598;2024-02-21T08:19:18;6.80;;;4.80;;
8285;SDS011;4181;43.416;24.598;2024-02-21T08:21:43;6.70;;;4.63;;
8285;SDS011;4181;43.416;24.598;2024-02-21T08:24:09;7.93;;;5.57;;
8285;SDS011;4181;43.416;24.598;2024-02-21T08:26:35;12.93;;;5.53;;
8285;SDS011;4181;43.416;24.598;2024-02-21T08:29:05;7.07;;;5.23;;
8285;SDS011;4181;43.416;24.598;2024-02-21T08:31:30;8.00;;;5.03;;
8285;SDS011;4181;43.416;24.598;2024-02-21T08:33:59;11.27;;;5.60;;
8285;SDS011;4181;43.416;24.598;2024-02-21T08:36:29;10.30;;;5.47;;
8285;SDS011;4181;43.416;24.598;2024-02-21T08:38:55;9.87;;;5.67;;
8285;SDS011;4181;43.416;24.598;2024-02-21T08:41:21;10.00;;;5.97;;
8285;SDS011;4181;43.416;24.598;2024-02-21T08:43:48;9.67;;;5.67;;
8285;SDS011;4181;43.416;24.598;2024-02-21T08:46:14;8.60;;;5.93;;
8285;SDS011;4181;43.416;24.598;2024-02-21T08:48:39;5.53;;;4.63;;
8285;SDS011;4181;43.416;24.598;2024-02-21T08:51:05;8.87;;;6.17;;
8285;SDS011;4181;43.416;24.598;2024-02-21T08:53:31;10.30;;;5.90;;
8285;SDS011;4181;43.416;24.598;2024-02-21T08:55:56;11.37;;;5.67;;
8285;SDS011;4181;43.416;24.598;2024-02-21T08:58:22;6.37;;;5.10;;
8285;SDS011;4181;43.416;24.598;2024-02-21T09:00:49;5.90;;;4.50;;
8285;SDS011;4181;43.416;24.598;2024-02-21T09:03:16;8.97;;;5.70;;
8285;SDS011;4181;43.416;24.598;2024-02-21T09:05:42;7.37;;;5.20;;
8285;SDS011;4181;43.416;24.598;2024-02-21T09:08:08;8.37;;;4.80;;
8285;SDS011;4181;43.416;24.598;2024-02-21T09:10:34;7.83;;;5.43;;
8285;SDS011;4181;43.416;24.598;2024-02-21T09:12:59;10.43;;;6.17;;
8285;SDS011;4181;43.416;24.598;2024-02-21T09:15:25;9.90;;;6.53;;
8285;SDS011;4181;43.416;24.598;2024-02-21T09:17:50;8.63;;;5.97;;
8285;SDS011;4181;43.416;24.598;2024-02-21T09:20:16;8.83;;;6.27;;
8285;SDS011;4181;43.416;24.598;2024-02-21T09:22:41;9.40;;;6.43;;
8285;SDS011;4181;43.416;24.598;2024-02-21T09:25:07;9.43;;;6.07;;
8285;SDS011;4181;43.416;24.598;2024-02-21T09:27:33;9.50;;;5.97;;
8285;SDS011;4181;43.416;24.598;2024-02-21T09:29:58;7.77;;;6.07;;
8285;SDS011;4181;43.416;24.598;2024-02-21T09:32:24;9.27;;;6.50;;
8285;SDS011;4181;43.416;24.598;2024-02-21T09:34:50;8.63;;;5.93;;
8285;SDS011;4181;43.416;24.598;2024-02-21T09:37:15;11.27;;;6.27;;
8285;SDS011;4181;43.416;24.598;2024-02-21T09:39:41;7.83;;;5.63;;
8285;SDS011;4181;43.416;24.598;2024-02-21T09:42:06;9.90;;;5.80;;
8285;SDS011;4181;43.416;24.598;2024-02-21T09:44:37;12.13;;;6.80;;
8285;SDS011;4181;43.416;24.598;2024-02-21T09:47:04;7.60;;;5.33;;
8285;SDS011;4181;43.416;24.598;2024-02-21T09:49:35;10.40;;;6.73;;
8285;SDS011;4181;43.416;24.598;2024-02-21T09:52:04;12.17;;;6.60;;
8285;SDS011;4181;43.416;24.598;2024-02-21T09:54:32;9.53;;;5.70;;
8285;SDS011;4181;43.416;24.598;2024-02-21T09:56:59;8.90;;;5.63;;
8285;SDS011;4181;43.416;24.598;2024-02-21T09:59:25;6.83;;;5.60;;
8285;SDS011;4181;43.416;24.598;2024-02-21T10:01:53;7.93;;;5.77;;
8285;SDS011;4181;43.416;24.598;2024-02-21T10:04:36;7.63;;;5.10;;
8285;SDS011;4181;43.416;24.598;2024-02-21T10:07:02;6.07;;;4.97;;
8285;SDS011;4181;43.416;24.598;2024-02-21T10:09:28;8.17;;;5.47;;
8285;SDS011;4181;43.416;24.598;2024-02-21T10:11:54;6.90;;;5.10;;
8285;SDS011;4181;43.416;24.598;2024-02-21T10:14:20;6.20;;;4.50;;
8285;SDS011;4181;43.416;24.598;2024-02-21T10:16:56;7.73;;;4.90;;
8285;SDS011;4181;43.416;24.598;2024-02-21T10:19:25;8.53;;;5.03;;
8285;SDS011;4181;43.416;24.598;2024-02-21T10:22:09;7.97;;;5.10;;
8285;SDS011;4181;43.416;24.598;2024-02-21T10:24:35;6.13;;;4.70;;
8285;SDS011;4181;43.416;24.598;2024-02-21T10:27:03;7.17;;;5.10;;
8285;SDS011;4181;43.416;24.598;2024-02-21T10:29:33;7.93;;;5.43;;
8285;SDS011;4181;43.416;24.598;2024-02-21T10:32:09;8.13;;;5.40;;
8285;SDS011;4181;43.416;24.598;2024-02-21T10:34:35;8.73;;;5.80;;
8285;SDS011;4181;43.416;24.598;2024-02-21T10:37:04;7.17;;;5.17;;
8285;SDS011;4181;43.416;24.598;2024-02-21T10:39:34;8.77;;;5.27;;
8285;SDS011;4181;43.416;24.598;2024-02-21T10:42:03;8.00;;;5.40;;
8285;SDS011;4181;43.416;24.598;2024-02-21T10:44:29;7.40;;;5.53;;
8285;SDS011;4181;43.416;24.598;2024-02-21T10:46:56;6.67;;;4.87;;
8285;SDS011;4181;43.416;24.598;2024-02-21T10:49:23;10.60;;;5.50;;
8285;SDS011;4181;43.416;24.598;2024-02-21T10:51:50;7.33;;;4.97;;
8285;SDS011;4181;43.416;24.598;2024-02-21T10:57:22;9.77;;;5.40;;
8285;SDS011;4181;43.416;24.598;2024-02-21T10:59:49;7.00;;;4.70;;
8285;SDS011;4181;43.416;24.598;2024-02-21T11:02:16;4.30;;;3.60;;
8285;SDS011;4181;43.416;24.598;2024-02-21T11:04:41;7.40;;;4.30;;
8285;SDS011;4181;43.416;24.598;2024-02-21T11:07:08;11.63;;;5.73;;
8285;SDS011;4181;43.416;24.598;2024-02-21T11:09:34;5.07;;;3.80;;
8285;SDS011;4181;43.416;24.598;2024-02-21T11:12:03;4.23;;;3.37;;
8285;SDS011;4181;43.416;24.598;2024-02-21T11:14:30;4.00;;;2.90;;
8285;SDS011;4181;43.416;24.598;2024-02-21T11:17:14;4.63;;;3.00;;
8285;SDS011;4181;43.416;24.598;2024-02-21T11:19:43;4.43;;;2.83;;
8285;SDS011;4181;43.416;24.598;2024-02-21T11:22:18;2.47;;;2.27;;
8285;SDS011;4181;43.416;24.598;2024-02-21T11:24:45;4.00;;;2.57;;
8285;SDS011;4181;43.416;24.598;2024-02-21T11:27:14;3.00;;;2.73;;
8285;SDS011;4181;43.416;24.598;2024-02-21T11:32:10;7.33;;;2.67;;
8285;SDS011;4181;43.416;24.598;2024-02-21T11:34:37;2.50;;;2.30;;
8285;SDS011;4181;43.416;24.598;2024-02-21T11:37:03;3.53;;;3.10;;
8285;SDS011;4181;43.416;24.598;2024-02-21T11:39:39;3.33;;;2.60;;
8285;SDS011;4181;43.416;24.598;2024-02-21T11:42:06;3.83;;;2.90;;
8285;SDS011;4181;43.416;24.598;2024-02-21T11:44:34;4.80;;;3.60;;
8285;SDS011;4181;43.416;24.598;2024-02-21T11:47:00;3.97;;;3.13;;
8285;SDS011;4181;43.416;24.598;2024-02-21T11:49:28;5.23;;;3.30;;
8285;SDS011;4181;43.416;24.598;2024-02-21T11:52:00;5.10;;;3.00;;
8285;SDS011;4181;43.416;24.598;2024-02-21T11:54:29;4.47;;;3.47;;
8285;SDS011;4181;43.416;24.598;2024-02-21T11:56:55;5.73;;;3.20;;
8285;SDS011;4181;43.416;24.598;2024-02-21T11:59:21;3.40;;;3.10;;
8285;SDS011;4181;43.416;24.598;2024-02-21T12:01:47;5.33;;;2.87;;
8285;SDS011;4181;43.416;24.598;2024-02-21T12:04:13;5.43;;;2.73;;
8285;SDS011;4181;43.416;24.598;2024-02-21T12:06:39;3.90;;;3.10;;
8285;SDS011;4181;43.416;24.598;2024-02-21T12:09:07;3.67;;;2.87;;
8285;SDS011;4181;43.416;24.598;2024-02-21T12:11:34;3.37;;;2.73;;
8285;SDS011;4181;43.416;24.598;2024-02-21T12:14:03;3.77;;;3.23;;
8285;SDS011;4181;43.416;24.598;2024-02-21T12:16:30;4.03;;;3.03;;
8285;SDS011;4181;43.416;24.598;2024-02-21T12:18:56;4.20;;;3.10;;
8285;SDS011;4181;43.416;24.598;2024-02-21T12:21:26;2.87;;;2.53;;
8285;SDS011;4181;43.416;24.598;2024-02-21T12:23:57;3.20;;;2.40;;
8285;SDS011;4181;43.416;24.598;2024-02-21T12:26:37;3.53;;;2.90;;
8285;SDS011;4181;43.416;24.598;2024-02-21T12:29:03;3.60;;;2.93;;
8285;SDS011;4181;43.416;24.598;2024-02-21T12:31:28;4.27;;;3.03;;
8285;SDS011;4181;43.416;24.598;2024-02-21T12:33:54;3.70;;;3.13;;
8285;SDS011;4181;43.416;24.598;2024-02-21T12:36:20;4.33;;;3.40;;
8285;SDS011;4181;43.416;24.598;2024-02-21T12:38:45;5.70;;;3.63;;
8285;SDS011;4181;43.416;24.598;2024-02-21T12:41:13;4.47;;;3.20;;
8285;SDS011;4181;43.416;24.598;2024-02-21T12:43:39;5.00;;;3.67;;
8285;SDS011;4181;43.416;24.598;2024-02-21T12:46:05;5.50;;;3.87;;
8285;SDS011;4181;43.416;24.598;2024-02-21T12:48:32;6.20;;;4.10;;
8285;SDS011;4181;43.416;24.598;2024-02-21T12:50:58;6.33;;;4.37;;
8285;SDS011;4181;43.416;24.598;2024-02-21T12:53:24;4.87;;;3.73;;
8285;SDS011;4181;43.416;24.598;2024-02-21T12:55:50;7.57;;;4.63;;
8285;SDS011;4181;43.416;24.598;2024-02-21T12:58:15;6.27;;;4.10;;
8285;SDS011;4181;43.416;24.598;2024-02-21T13:00:41;6.90;;;4.10;;
8285;SDS011;4181;43.416;24.598;2024-02-21T13:03:08;4.83;;;3.70;;
8285;SDS011;4181;43.416;24.598;2024-02-21T13:05:37;10.93;;;7.10;;
8285;SDS011;4181;43.416;24.598;2024-02-21T13:08:04;6.57;;;4.67;;
8285;SDS011;4181;43.416;24.598;2024-02-21T13:10:30;6.27;;;4.70;;
8285;SDS011;4181;43.416;24.598;2024-02-21T13:12:56;7.90;;;4.87;;
8285;SDS011;4181;43.416;24.598;2024-02-21T13:15:21;5.10;;;4.40;;
8285;SDS011;4181;43.416;24.598;2024-02-21T13:17:55;5.43;;;4.20;;
8285;SDS011;4181;43.416;24.598;2024-02-21T13:20:25;4.93;;;3.90;;
8285;SDS011;4181;43.416;24.598;2024-02-21T13:22:53;6.43;;;3.93;;
8285;SDS011;4181;43.416;24.598;2024-02-21T13:25:18;8.53;;;5.30;;
8285;SDS011;4181;43.416;24.598;2024-02-21T13:27:46;4.90;;;4.10;;
8285;SDS011;4181;43.416;24.598;2024-02-21T13:30:12;7.60;;;5.57;;
8285;SDS011;4181;43.416;24.598;2024-02-21T13:32:40;6.87;;;4.93;;
8285;SDS011;4181;43.416;24.598;2024-02-21T13:35:07;6.50;;;4.97;;
8285;SDS011;4181;43.416;24.598;2024-02-21T13:37:33;8.60;;;5.60;;
8285;SDS011;4181;43.416;24.598;2024-02-21T13:39:59;7.57;;;5.20;;
8285;SDS011;4181;43.416;24.598;2024-02-21T13:42:25;8.90;;;4.97;;
8285;SDS011;4181;43.416;24.598;2024-02-21T13:44:52;9.00;;;4.83;;
8285;SDS011;4181;43.416;24.598;2024-02-21T13:47:18;7.20;;;4.90;;
8285;SDS011;4181;43.416;24.598;2024-02-21T13:49:44;8.30;;;5.03;;
8285;SDS011;4181;43.416;24.598;2024-02-21T13:52:09;8.37;;;5.37;;
8285;SDS011;4181;43.416;24.598;2024-02-21T13:54:35;7.20;;;5.07;;
8285;SDS011;4181;43.416;24.598;2024-02-21T13:57:00;13.63;;;6.43;;
8285;SDS011;4181;43.416;24.598;2024-02-21T13:59:27;11.63;;;6.40;;
8285;SDS011;4181;43.416;24.598;2024-02-21T14:01:53;8.13;;;5.20;;
8285;SDS011;4181;43.416;24.598;2024-02-21T14:04:18;12.53;;;5.97;;
8285;SDS011;4181;43.416;24.598;2024-02-21T14:06:44;10.17;;;5.87;;
8285;SDS011;4181;43.416;24.598;2024-02-21T14:09:09;12.00;;;6.13;;
8285;SDS011;4181;43.416;24.598;2024-02-21T14:11:35;22.27;;;9.40;;
8285;SDS011;4181;43.416;24.598;2024-02-21T14:14:02;20.70;;;5.80;;
8285;SDS011;4181;43.416;24.598;2024-02-21T14:16:28;26.70;;;7.27;;
8285;SDS011;4181;43.416;24.598;2024-02-21T14:18:54;10.67;;;5.27;;
8285;SDS011;4181;43.416;24.598;2024-02-21T14:21:20;7.43;;;4.37;;
8285;SDS011;4181;43.416;24.598;2024-02-21T14:23:45;11.07;;;3.60;;
8285;SDS011;4181;43.416;24.598;2024-02-21T14:26:11;5.07;;;3.27;;
8285;SDS011;4181;43.416;24.598;2024-02-21T14:28:37;8.70;;;4.33;;
8285;SDS011;4181;43.416;24.598;2024-02-21T14:31:02;7.83;;;5.13;;
8285;SDS011;4181;43.416;24.598;2024-02-21T14:33:30;5.33;;;3.77;;
8285;SDS011;4181;43.416;24.598;2024-02-21T14:35:56;5.77;;;3.47;;
8285;SDS011;4181;43.416;24.598;2024-02-21T14:38:22;6.37;;;3.70;;
8285;SDS011;4181;43.416;24.598;2024-02-21T14:40:48;4.77;;;3.43;;
8285;SDS011;4181;43.416;24.598;2024-02-21T14:43:13;4.60;;;3.00;;
8285;SDS011;4181;43.416;24.598;2024-02-21T14:45:39;6.83;;;4.17;;
8285;SDS011;4181;43.416;24.598;2024-02-21T14:48:05;5.97;;;4.00;;
8285;SDS011;4181;43.416;24.598;2024-02-21T14:50:31;4.80;;;3.70;;
8285;SDS011;4181;43.416;24.598;2024-02-21T14:52:56;6.37;;;3.60;;
8285;SDS011;4181;43.416;24.598;2024-02-21T14:55:21;3.40;;;3.03;;
8285;SDS011;4181;43.416;24.598;2024-02-21T14:57:48;5.20;;;3.40;;
8285;SDS011;4181;43.416;24.598;2024-02-21T15:00:13;5.07;;;3.53;;
8285;SDS011;4181;43.416;24.598;2024-02-21T15:02:39;5.80;;;3.60;;